createdAt,value
2019-06-15T00:00:09.877Z,16.90
2019-06-15T00:02:38.483Z,16.90
2019-06-15T00:05:07.186Z,17.00
2019-06-15T00:07:35.755Z,17.40
2019-06-15T00:10:06.450Z,17.50
2019-06-15T00:12:35.012Z,17.30
2019-06-15T00:15:05.106Z,17.30
2019-06-15T00:17:33.717Z,17.20
2019-06-15T00:20:02.499Z,17.10
2019-06-15T00:22:31.039Z,16.90
2019-06-15T00:24:59.694Z,17.10
2019-06-15T00:27:28.222Z,17.30
2019-06-15T00:29:56.717Z,17.20
2019-06-15T00:32:25.602Z,17.10
2019-06-15T00:34:54.171Z,17.40
2019-06-15T00:37:22.717Z,17.30
2019-06-15T00:39:51.287Z,17.10
2019-06-15T00:42:19.838Z,17.00
2019-06-15T00:44:48.410Z,17.00
2019-06-15T00:47:16.947Z,17.10
2019-06-15T00:49:45.533Z,17.30
2019-06-15T00:52:14.055Z,17.20
2019-06-15T00:54:50.429Z,17.00
2019-06-15T00:57:12.799Z,16.90
2019-06-15T00:59:41.438Z,16.90
2019-06-15T01:02:09.977Z,17.00
2019-06-15T01:04:38.542Z,17.10
2019-06-15T01:07:07.081Z,17.00
2019-06-15T01:09:35.663Z,16.90
2019-06-15T01:12:04.340Z,17.10
2019-06-15T01:14:32.880Z,17.00
2019-06-15T01:17:01.804Z,16.90
2019-06-15T01:19:30.344Z,17.00
2019-06-15T01:21:58.911Z,16.80
2019-06-15T01:24:27.443Z,16.90
2019-06-15T01:26:56.015Z,17.10
2019-06-15T01:29:24.550Z,17.20
2019-06-15T01:31:53.121Z,17.20
2019-06-15T01:34:21.669Z,17.20
2019-06-15T01:36:50.248Z,17.40
2019-06-15T01:39:18.795Z,17.40
2019-06-15T01:41:47.365Z,17.40
2019-06-15T01:44:15.982Z,17.20
2019-06-15T01:46:44.539Z,17.10
2019-06-15T01:49:13.080Z,17.10
2019-06-15T01:51:41.636Z,17.10
2019-06-15T01:54:10.179Z,17.20
2019-06-15T01:56:38.806Z,17.20
2019-06-15T01:59:07.419Z,17.20
2019-06-15T02:01:36.154Z,17.10
2019-06-15T02:04:04.839Z,17.00
2019-06-15T02:06:36.287Z,17.00
2019-06-15T02:09:08.346Z,16.90
2019-06-15T02:11:37.456Z,16.90
2019-06-15T02:14:06.299Z,16.80
2019-06-15T02:16:35.007Z,16.70
2019-06-15T02:19:03.624Z,16.70
2019-06-15T02:21:32.202Z,16.60
2019-06-15T02:24:00.752Z,16.50
2019-06-15T02:26:29.326Z,16.50
2019-06-15T02:28:58.341Z,16.50
2019-06-15T02:31:26.923Z,16.50
2019-06-15T02:33:55.461Z,16.40
2019-06-15T02:36:24.051Z,16.50
2019-06-15T02:38:52.598Z,16.40
2019-06-15T02:41:21.198Z,16.40
2019-06-15T02:43:49.848Z,16.30
2019-06-15T02:46:18.382Z,16.20
2019-06-15T02:48:47.025Z,16.40
2019-06-15T02:51:15.994Z,16.70
2019-06-15T02:53:45.527Z,16.60
2019-06-15T02:56:14.423Z,16.60
2019-06-15T02:58:42.998Z,16.30
2019-06-15T03:01:11.678Z,16.10
2019-06-15T03:03:40.252Z,16.00
2019-06-15T03:06:08.792Z,16.10
2019-06-15T03:08:37.930Z,16.30
2019-06-15T03:11:06.575Z,16.30
2019-06-15T03:13:36.360Z,16.60
2019-06-15T03:16:06.178Z,16.60
2019-06-15T03:18:34.975Z,16.50
2019-06-15T03:21:03.603Z,16.20
2019-06-15T03:23:32.546Z,16.00
2019-06-15T03:26:05.434Z,15.80
2019-06-15T03:28:31.650Z,15.90
2019-06-15T03:31:00.197Z,15.70
2019-06-15T03:33:28.766Z,15.60
2019-06-15T03:35:57.420Z,15.50
2019-06-15T03:38:25.950Z,15.40
2019-06-15T03:40:54.469Z,15.40
2019-06-15T03:43:23.006Z,15.50
2019-06-15T03:45:51.545Z,15.50
2019-06-15T03:48:20.131Z,15.50
2019-06-15T03:50:48.682Z,15.50
2019-06-15T03:53:17.511Z,15.60
2019-06-15T03:55:46.049Z,15.60
2019-06-15T03:58:14.626Z,15.60
2019-06-15T04:00:46.244Z,15.40
2019-06-15T04:03:14.957Z,15.20
2019-06-15T04:05:44.459Z,15.20
2019-06-15T04:08:13.119Z,15.40
2019-06-15T04:10:41.737Z,15.40
2019-06-15T04:13:10.412Z,15.40
2019-06-15T04:15:39.066Z,15.50
2019-06-15T04:18:07.641Z,15.60
2019-06-15T04:20:36.178Z,15.60
2019-06-15T04:23:05.124Z,15.60
2019-06-15T04:25:33.667Z,15.70
2019-06-15T04:28:02.254Z,15.70
2019-06-15T04:30:30.838Z,15.80
2019-06-15T04:32:59.385Z,15.80
2019-06-15T04:35:28.029Z,16.00
2019-06-15T04:37:56.602Z,15.90
2019-06-15T04:40:25.142Z,16.10
2019-06-15T04:42:53.726Z,16.00
2019-06-15T04:45:22.262Z,16.00
2019-06-15T04:47:50.848Z,16.00
2019-06-15T04:50:19.561Z,16.10
2019-06-15T04:52:48.100Z,16.30
2019-06-15T04:55:16.617Z,16.50
2019-06-15T04:57:45.187Z,16.50
2019-06-15T05:00:14.558Z,16.60
2019-06-15T05:02:43.111Z,16.60
2019-06-15T05:05:12.226Z,16.80
2019-06-15T05:07:41.156Z,16.90
2019-06-15T05:10:10.337Z,17.00
2019-06-15T05:12:39.639Z,17.00
2019-06-15T05:15:09.523Z,17.00
2019-06-15T05:17:38.154Z,17.20
2019-06-15T05:20:07.127Z,17.30
2019-06-15T05:22:36.156Z,17.30
2019-06-15T05:25:06.377Z,17.50
2019-06-15T05:27:35.417Z,17.50
2019-06-15T05:30:06.858Z,17.60
2019-06-15T05:32:35.845Z,17.60
2019-06-15T05:35:05.870Z,17.70
2019-06-15T05:37:34.522Z,17.80
2019-06-15T05:40:03.541Z,17.80
2019-06-15T05:42:32.122Z,17.80
2019-06-15T05:45:00.677Z,17.90
2019-06-15T05:47:29.251Z,18.00
2019-06-15T05:49:57.801Z,18.20
2019-06-15T05:52:26.332Z,18.20
2019-06-15T05:54:54.906Z,18.30
2019-06-15T05:57:23.489Z,18.50
2019-06-15T05:59:51.954Z,18.70
2019-06-15T06:02:24.533Z,18.70
2019-06-15T06:04:51.229Z,18.80
2019-06-15T06:07:19.754Z,18.80
2019-06-15T06:09:48.566Z,19.00
2019-06-15T06:12:17.080Z,19.10
2019-06-15T06:14:45.607Z,19.20
2019-06-15T06:17:14.199Z,19.40
2019-06-15T06:19:42.766Z,19.40
2019-06-15T06:22:11.777Z,19.60
2019-06-15T06:24:40.376Z,19.60
2019-06-15T06:27:08.939Z,19.60
2019-06-15T06:29:37.407Z,19.70
2019-06-15T06:32:05.981Z,19.80
2019-06-15T06:34:34.520Z,19.80
2019-06-15T06:37:03.106Z,19.90
2019-06-15T06:39:31.712Z,20.00
2019-06-15T06:42:00.287Z,20.10
2019-06-15T06:44:28.824Z,20.20
2019-06-15T06:46:57.414Z,20.30
2019-06-15T06:49:25.939Z,20.50
2019-06-15T06:51:54.518Z,20.60
2019-06-15T06:54:23.092Z,20.80
2019-06-15T06:56:51.636Z,20.90
2019-06-15T06:59:20.596Z,21.10
2019-06-15T07:01:49.159Z,21.30
2019-06-15T07:04:17.722Z,21.20
2019-06-15T07:06:46.302Z,21.10
2019-06-15T07:09:14.951Z,21.10
2019-06-15T07:11:43.691Z,21.30
2019-06-15T07:14:12.318Z,21.50
2019-06-15T07:16:40.900Z,21.80
2019-06-15T07:19:09.550Z,22.00
2019-06-15T07:21:38.092Z,22.20
2019-06-15T07:24:06.698Z,22.50
2019-06-15T07:26:35.278Z,22.70
2019-06-15T07:29:04.162Z,22.90
2019-06-15T07:31:32.738Z,22.90
2019-06-15T07:34:01.274Z,23.00
2019-06-15T07:36:29.850Z,23.20
2019-06-15T07:38:58.438Z,23.30
2019-06-15T07:41:26.974Z,23.40
2019-06-15T07:43:55.561Z,23.40
2019-06-15T07:46:24.174Z,23.40
2019-06-15T07:48:52.779Z,23.40
2019-06-15T07:51:21.337Z,23.50
2019-06-15T07:53:49.915Z,23.70
2019-06-15T07:56:18.540Z,23.80
2019-06-15T07:58:47.363Z,23.80
2019-06-15T08:01:15.943Z,23.60
2019-06-15T08:03:44.479Z,23.50
2019-06-15T08:06:13.131Z,23.50
2019-06-15T08:08:41.777Z,23.60
2019-06-15T08:11:10.362Z,23.70
2019-06-15T08:13:38.898Z,23.80
2019-06-15T08:16:07.483Z,23.90
2019-06-15T08:18:36.031Z,24.20
2019-06-15T08:21:04.612Z,24.30
2019-06-15T08:23:33.167Z,24.20
2019-06-15T08:26:01.738Z,23.50
2019-06-15T08:28:39.864Z,23.30
2019-06-15T08:31:00.495Z,23.00
2019-06-15T08:33:29.452Z,22.80
2019-06-15T08:35:57.994Z,23.10
2019-06-15T08:38:26.526Z,23.60
2019-06-15T08:40:55.108Z,24.10
2019-06-15T08:43:24.069Z,24.40
2019-06-15T08:45:52.653Z,24.70
2019-06-15T08:48:21.190Z,24.90
2019-06-15T08:50:49.751Z,24.90
2019-06-15T08:53:18.291Z,25.00
2019-06-15T08:55:46.830Z,25.00
2019-06-15T08:58:15.406Z,24.90
2019-06-15T09:00:43.956Z,24.50
2019-06-15T09:03:12.539Z,24.00
2019-06-15T09:05:41.083Z,23.10
2019-06-15T09:08:09.700Z,22.60
2019-06-15T09:10:38.272Z,22.50
2019-06-15T09:13:06.811Z,22.10
2019-06-15T09:15:44.538Z,21.90
2019-06-15T09:18:13.421Z,22.20
2019-06-15T09:20:41.959Z,22.40
2019-06-15T09:23:10.542Z,22.80
2019-06-15T09:25:39.323Z,22.80
2019-06-15T09:28:08.775Z,22.60
2019-06-15T09:30:37.276Z,22.80
2019-06-15T09:33:05.863Z,23.00
2019-06-15T09:35:34.445Z,23.10
2019-06-15T09:38:03.010Z,23.40
2019-06-15T09:40:31.623Z,23.70
2019-06-15T09:43:00.129Z,24.10
2019-06-15T09:45:28.661Z,24.20
2019-06-15T09:47:57.162Z,24.30
2019-06-15T09:50:25.741Z,24.30
2019-06-15T09:52:54.298Z,24.50
2019-06-15T09:55:22.854Z,24.80
2019-06-15T09:57:51.433Z,25.10
2019-06-15T10:00:21.205Z,25.10
2019-06-15T10:02:49.716Z,25.00
2019-06-15T10:05:18.394Z,25.20
2019-06-15T10:07:46.903Z,25.30
2019-06-15T10:10:15.558Z,25.60
2019-06-15T10:12:44.155Z,25.80
2019-06-15T10:15:13.172Z,25.80
2019-06-15T10:17:41.718Z,25.70
2019-06-15T10:20:11.041Z,25.60
2019-06-15T10:22:39.614Z,25.50
2019-06-15T10:25:08.606Z,25.20
2019-06-15T10:27:37.266Z,25.10
2019-06-15T10:30:08.983Z,24.90
2019-06-15T10:32:37.538Z,24.90
2019-06-15T10:35:06.642Z,24.80
2019-06-15T10:37:35.177Z,24.60
2019-06-15T10:40:06.453Z,24.70
2019-06-15T10:42:35.035Z,24.70
2019-06-15T10:45:05.627Z,24.70
2019-06-15T10:47:34.194Z,24.50
2019-06-15T10:50:02.730Z,24.50
2019-06-15T10:52:31.321Z,24.50
2019-06-15T10:54:59.911Z,24.50
2019-06-15T10:57:28.959Z,24.50
2019-06-15T10:59:57.975Z,24.40
2019-06-15T11:02:26.598Z,24.50
2019-06-15T11:04:55.170Z,24.50
2019-06-15T11:07:23.634Z,24.70
2019-06-15T11:09:52.213Z,24.20
2019-06-15T11:12:20.828Z,24.30
2019-06-15T11:14:49.410Z,24.40
2019-06-15T11:17:18.021Z,24.70
2019-06-15T11:19:46.615Z,25.20
2019-06-15T11:22:15.154Z,25.40
2019-06-15T11:24:43.961Z,25.50
2019-06-15T11:27:13.354Z,25.50
2019-06-15T11:29:41.896Z,25.60
2019-06-15T11:32:10.500Z,25.60
2019-06-15T11:34:39.168Z,25.40
2019-06-15T11:37:07.809Z,25.10
2019-06-15T11:39:36.385Z,25.20
2019-06-15T11:42:05.069Z,25.10
2019-06-15T11:44:33.609Z,25.20
2019-06-15T11:47:02.298Z,25.50
2019-06-15T11:49:30.835Z,25.70
2019-06-15T11:51:59.782Z,25.90
2019-06-15T11:54:28.326Z,26.00
2019-06-15T11:56:56.899Z,25.90
2019-06-15T11:59:25.444Z,25.80
2019-06-15T12:01:54.021Z,25.90
2019-06-15T12:04:22.565Z,25.70
2019-06-15T12:06:51.146Z,26.00
2019-06-15T12:09:19.612Z,26.10
2019-06-15T12:11:48.204Z,26.10
2019-06-15T12:14:16.738Z,25.50
2019-06-15T12:16:45.258Z,24.60
2019-06-15T12:19:13.801Z,24.60
2019-06-15T12:21:42.333Z,24.90
2019-06-15T12:24:10.856Z,24.50
2019-06-15T12:26:39.711Z,24.40
2019-06-15T12:29:08.289Z,24.30
2019-06-15T12:31:36.854Z,24.60
2019-06-15T12:34:05.470Z,25.20
2019-06-15T12:36:34.093Z,25.20
2019-06-15T12:39:02.557Z,25.30
2019-06-15T12:41:31.134Z,24.90
2019-06-15T12:43:59.701Z,25.00
2019-06-15T12:46:28.259Z,25.20
2019-06-15T12:48:56.734Z,25.30
2019-06-15T12:51:25.282Z,25.30
2019-06-15T12:53:53.818Z,25.10
2019-06-15T12:56:22.387Z,25.10
2019-06-15T12:58:50.933Z,24.70
2019-06-15T13:01:19.423Z,24.70
2019-06-15T13:03:47.971Z,24.60
2019-06-15T13:06:16.535Z,24.70
2019-06-15T13:08:45.007Z,24.30
2019-06-15T13:11:13.567Z,24.10
2019-06-15T13:13:42.098Z,23.80
2019-06-15T13:16:10.744Z,23.80
2019-06-15T13:18:39.216Z,24.10
2019-06-15T13:21:07.836Z,24.20
2019-06-15T13:23:36.398Z,24.00
2019-06-15T13:26:05.066Z,24.10
2019-06-15T13:28:33.641Z,24.20
2019-06-15T13:31:17.092Z,24.20
2019-06-15T13:33:32.394Z,24.30
2019-06-15T13:36:00.950Z,24.40
2019-06-15T13:38:29.518Z,24.50
2019-06-15T13:40:58.051Z,24.60
2019-06-15T13:43:26.632Z,24.60
2019-06-15T13:45:55.186Z,24.60
2019-06-15T13:48:23.774Z,24.50
2019-06-15T13:50:52.274Z,24.60
2019-06-15T13:53:20.837Z,24.50
2019-06-15T13:55:49.378Z,24.70
2019-06-15T13:58:17.938Z,24.60
2019-06-15T14:00:46.544Z,24.90
2019-06-15T14:03:15.043Z,24.90
2019-06-15T14:05:43.507Z,25.30
2019-06-15T14:08:12.151Z,25.30
2019-06-15T14:10:40.686Z,25.50
2019-06-15T14:13:09.174Z,25.90
2019-06-15T14:15:37.645Z,26.30
2019-06-15T14:18:06.209Z,26.50
2019-06-15T14:20:34.745Z,26.80
2019-06-15T14:23:03.303Z,26.20
2019-06-15T14:25:31.846Z,26.40
2019-06-15T14:28:00.401Z,26.70
2019-06-15T14:30:29.231Z,26.60
2019-06-15T14:32:57.905Z,26.60
2019-06-15T14:35:26.447Z,26.60
2019-06-15T14:37:55.026Z,26.80
2019-06-15T14:40:23.554Z,27.20
2019-06-15T14:42:52.038Z,27.00
2019-06-15T14:45:20.578Z,27.10
2019-06-15T14:47:49.104Z,27.30
2019-06-15T14:50:17.813Z,27.40
2019-06-15T14:52:46.288Z,27.20
2019-06-15T14:55:15.490Z,27.50
2019-06-15T14:57:44.079Z,27.10
2019-06-15T15:00:12.934Z,27.20
2019-06-15T15:02:41.480Z,27.00
2019-06-15T15:05:10.379Z,26.60
2019-06-15T15:07:38.917Z,26.40
2019-06-15T15:10:09.816Z,26.20
2019-06-15T15:12:41.450Z,26.40
2019-06-15T15:15:09.725Z,26.00
2019-06-15T15:17:38.219Z,25.70
2019-06-15T15:20:09.413Z,25.60
2019-06-15T15:22:37.954Z,25.70
2019-06-15T15:25:07.188Z,26.60
2019-06-15T15:27:37.690Z,26.80
2019-06-15T15:30:07.833Z,26.80
2019-06-15T15:32:36.982Z,26.70
2019-06-15T15:35:06.988Z,27.10
2019-06-15T15:37:37.148Z,27.00
2019-06-15T15:40:07.362Z,26.50
2019-06-15T15:42:37.131Z,26.30
2019-06-15T15:45:07.517Z,26.10
2019-06-15T15:47:36.474Z,26.30
2019-06-15T15:50:07.945Z,26.70
2019-06-15T15:52:37.433Z,26.90
2019-06-15T15:55:09.761Z,26.90
2019-06-15T15:57:38.240Z,27.40
2019-06-15T16:00:07.835Z,28.20
2019-06-15T16:02:48.271Z,28.50
2019-06-15T16:05:07.234Z,29.10
2019-06-15T16:07:36.431Z,29.60
2019-06-15T16:10:06.331Z,29.40
2019-06-15T16:12:36.204Z,29.20
2019-06-15T16:15:07.324Z,28.80
2019-06-15T16:17:37.244Z,28.00
2019-06-15T16:20:09.133Z,27.70
2019-06-15T16:22:37.665Z,27.40
2019-06-15T16:25:06.876Z,27.40
2019-06-15T16:27:37.091Z,27.50
2019-06-15T16:30:07.685Z,26.90
2019-06-15T16:32:37.206Z,26.60
2019-06-15T16:35:07.636Z,26.80
2019-06-15T16:37:36.315Z,27.00
2019-06-15T16:40:08.644Z,26.50
2019-06-15T16:42:37.208Z,26.90
2019-06-15T16:45:06.995Z,26.70
2019-06-15T16:47:36.403Z,26.50
2019-06-15T16:50:07.023Z,26.10
2019-06-15T16:52:36.405Z,26.20
2019-06-15T16:55:11.003Z,26.40
2019-06-15T16:57:37.944Z,26.10
2019-06-15T17:00:09.878Z,26.40
2019-06-15T17:02:38.341Z,26.50
2019-06-15T17:05:06.904Z,26.90
2019-06-15T17:07:36.756Z,27.20
2019-06-15T17:10:07.022Z,27.20
2019-06-15T17:12:37.262Z,27.20
2019-06-15T17:15:07.277Z,27.30
2019-06-15T17:17:36.881Z,27.00
2019-06-15T17:20:08.866Z,26.50
2019-06-15T17:22:37.981Z,26.40
2019-06-15T17:25:08.237Z,26.20
2019-06-15T17:27:37.501Z,26.00
2019-06-15T17:30:08.354Z,25.90
2019-06-15T17:32:37.104Z,25.50
2019-06-15T17:35:07.075Z,25.40
2019-06-15T17:37:36.374Z,25.20
2019-06-15T17:40:08.254Z,25.10
2019-06-15T17:42:37.079Z,24.90
2019-06-15T17:45:06.779Z,24.80
2019-06-15T17:47:35.515Z,24.50
2019-06-15T17:50:07.546Z,24.40
2019-06-15T17:52:36.388Z,24.50
2019-06-15T17:55:07.938Z,24.60
2019-06-15T17:57:36.834Z,24.70
2019-06-15T18:00:07.910Z,24.80
2019-06-15T18:02:38.341Z,24.80
2019-06-15T18:05:07.059Z,24.90
2019-06-15T18:07:36.034Z,24.80
2019-06-15T18:10:08.917Z,24.50
2019-06-15T18:12:37.470Z,24.30
2019-06-15T18:15:09.153Z,24.30
2019-06-15T18:17:37.732Z,24.30
2019-06-15T18:20:06.959Z,24.30
2019-06-15T18:22:36.243Z,24.00
2019-06-15T18:25:06.476Z,23.80
2019-06-15T18:27:37.344Z,23.60
2019-06-15T18:30:09.014Z,23.60
2019-06-15T18:32:38.050Z,23.60
2019-06-15T18:35:07.470Z,23.50
2019-06-15T18:37:37.184Z,23.30
2019-06-15T18:40:07.654Z,23.40
2019-06-15T18:42:36.923Z,23.20
2019-06-15T18:45:09.210Z,23.00
2019-06-15T18:47:38.040Z,22.90
2019-06-15T18:50:07.757Z,22.80
2019-06-15T18:52:37.886Z,22.50
2019-06-15T18:55:08.212Z,22.40
2019-06-15T18:57:37.395Z,22.30
2019-06-15T19:00:07.675Z,22.30
2019-06-15T19:02:36.520Z,22.30
2019-06-15T19:05:08.629Z,22.10
2019-06-15T19:07:37.855Z,22.10
2019-06-15T19:10:07.280Z,21.90
2019-06-15T19:12:37.412Z,21.90
2019-06-15T19:15:07.257Z,21.70
2019-06-15T19:17:37.079Z,21.60
2019-06-15T19:20:06.953Z,21.60
2019-06-15T19:22:35.499Z,21.50
2019-06-15T19:25:05.318Z,21.70
2019-06-15T19:27:36.406Z,21.60
2019-06-15T19:30:06.241Z,21.80
2019-06-15T19:32:36.843Z,22.00
2019-06-15T19:35:09.661Z,21.80
2019-06-15T19:37:38.182Z,21.40
2019-06-15T19:40:08.338Z,21.30
2019-06-15T19:42:37.442Z,21.20
2019-06-15T19:45:10.675Z,21.40
2019-06-15T19:47:39.428Z,21.40
2019-06-15T19:50:09.951Z,21.30
2019-06-15T19:52:38.688Z,21.20
2019-06-15T19:55:07.772Z,21.10
2019-06-15T19:57:36.606Z,20.90
2019-06-15T20:00:09.399Z,20.90
2019-06-15T20:02:37.966Z,20.80
2019-06-15T20:05:08.131Z,20.60
2019-06-15T20:07:36.875Z,20.40
2019-06-15T20:10:10.744Z,20.30
2019-06-15T20:12:37.748Z,20.30
2019-06-15T20:15:06.927Z,20.10
2019-06-15T20:17:36.804Z,20.10
2019-06-15T20:20:07.141Z,20.10
2019-06-15T20:22:37.242Z,20.00
2019-06-15T20:25:07.790Z,19.80
2019-06-15T20:27:37.673Z,19.60
2019-06-15T20:30:08.335Z,19.50
2019-06-15T20:32:37.035Z,19.60
2019-06-15T20:35:17.482Z,19.90
2019-06-15T20:37:40.095Z,19.80
2019-06-15T20:40:10.661Z,19.60
2019-06-15T20:42:39.297Z,19.70
2019-06-15T20:45:09.582Z,19.60
2019-06-15T20:47:38.213Z,19.50
2019-06-15T20:50:22.020Z,19.10
2019-06-15T20:52:39.287Z,18.90
2019-06-15T20:55:08.161Z,18.90
2019-06-15T20:57:36.793Z,18.70
2019-06-15T21:00:07.634Z,18.80
2019-06-15T21:02:36.365Z,18.80
2019-06-15T21:05:07.358Z,18.50
2019-06-15T21:07:36.240Z,18.40
2019-06-15T21:10:08.732Z,18.70
2019-06-15T21:12:37.754Z,18.80
2019-06-15T21:15:07.867Z,19.10
2019-06-15T21:17:37.072Z,19.00
2019-06-15T21:20:08.356Z,18.90
2019-06-15T21:22:36.968Z,18.70
2019-06-15T21:25:07.171Z,18.50
2019-06-15T21:27:36.823Z,18.40
2019-06-15T21:30:10.495Z,18.40
2019-06-15T21:32:39.031Z,18.30
2019-06-15T21:35:08.538Z,18.30
2019-06-15T21:37:37.269Z,18.30
2019-06-15T21:40:09.338Z,18.50
2019-06-15T21:42:37.870Z,18.60
2019-06-15T21:45:07.595Z,18.60
2019-06-15T21:47:37.323Z,18.40
2019-06-15T21:50:09.677Z,18.30
2019-06-15T21:52:38.147Z,18.30
2019-06-15T21:55:07.414Z,18.40
2019-06-15T21:57:36.515Z,18.60
2019-06-15T22:00:13.274Z,18.50
2019-06-15T22:02:41.957Z,18.30
2019-06-15T22:05:10.877Z,18.30
2019-06-15T22:07:39.402Z,18.20
2019-06-15T22:10:08.911Z,18.10
2019-06-15T22:12:37.515Z,17.90
2019-06-15T22:15:08.815Z,18.00
2019-06-15T22:17:37.750Z,18.20
2019-06-15T22:20:07.860Z,18.20
2019-06-15T22:22:36.755Z,18.00
2019-06-15T22:25:08.750Z,17.70
2019-06-15T22:27:37.329Z,17.90
2019-06-15T22:30:07.663Z,17.70
2019-06-15T22:32:36.349Z,17.50
2019-06-15T22:35:08.466Z,17.40
2019-06-15T22:37:37.033Z,17.30
2019-06-15T22:40:08.285Z,17.30
2019-06-15T22:42:36.944Z,17.30
2019-06-15T22:45:07.099Z,17.50
2019-06-15T22:47:36.358Z,17.40
2019-06-15T22:50:08.390Z,17.40
2019-06-15T22:52:37.289Z,17.40
2019-06-15T22:55:07.379Z,17.30
2019-06-15T22:57:37.113Z,17.30
2019-06-15T23:00:07.937Z,17.20
2019-06-15T23:02:37.042Z,17.30
2019-06-15T23:05:06.741Z,17.20
2019-06-15T23:07:36.440Z,17.30
2019-06-15T23:10:08.722Z,17.20
2019-06-15T23:12:37.481Z,17.30
2019-06-15T23:15:08.850Z,17.30
2019-06-15T23:17:37.568Z,17.30
2019-06-15T23:20:11.010Z,17.60
2019-06-15T23:22:39.569Z,17.70
2019-06-15T23:25:08.279Z,17.60
2019-06-15T23:27:36.847Z,17.50
2019-06-15T23:30:08.591Z,17.40
2019-06-15T23:32:37.089Z,17.40
2019-06-15T23:35:08.862Z,17.30
2019-06-15T23:37:37.737Z,17.20
2019-06-15T23:40:22.187Z,17.10
2019-06-15T23:42:51.095Z,17.10
2019-06-15T23:45:20.982Z,17.10
2019-06-15T23:47:49.862Z,17.10
2019-06-15T23:50:19.738Z,17.10
2019-06-15T23:52:48.662Z,17.20
2019-06-15T23:55:18.237Z,17.10
2019-06-15T23:57:46.813Z,17.30
